N239BL KTMB-ZZZZ
Flight info
| Callsign | N239BL |
|---|---|
| Flight time | N/A |
| Altitude | 1500 |
| Route | MIAMI AREA VFR |
| Aircraft | C172/L-SFG/C |
Departure
| Time | 2026-05-05 23:42 |
|---|---|
| Airport | Miami Executive Airport (KTMB) |
Arrival
| Time | N/A |
|---|---|
| Airport | ZZZZ |
| Time | Latitude | Longitude | Altitude | Speed | Heading |
|---|---|---|---|---|---|
| 2026-05-05 23:31 | 25.64703 | -80.43188 | 15 ft | 0 kts | 38° |
| 2026-05-05 23:35 | 25.64719 | -80.43186 | 16 ft | 5 kts | 326° |
| 2026-05-05 23:36 | 25.64709 | -80.43212 | 15 ft | 4 kts | 228° |
| 2026-05-05 23:36 | 25.64705 | -80.43244 | 14 ft | 4 kts | 256° |
| 2026-05-05 23:36 | 25.64684 | -80.43265 | 14 ft | 4 kts | 216° |
| 2026-05-05 23:36 | 25.64662 | -80.43290 | 14 ft | 5 kts | 221° |
| 2026-05-05 23:37 | 25.64618 | -80.43326 | 13 ft | 8 kts | 217° |
| 2026-05-05 23:37 | 25.64571 | -80.43366 | 13 ft | 9 kts | 212° |
| 2026-05-05 23:37 | 25.64512 | -80.43396 | 12 ft | 9 kts | 202° |
| 2026-05-05 23:37 | 25.64454 | -80.43422 | 11 ft | 8 kts | 199° |
| 2026-05-05 23:38 | 25.64429 | -80.43464 | 11 ft | 9 kts | 264° |
| 2026-05-05 23:38 | 25.64427 | -80.43535 | 12 ft | 11 kts | 266° |
| 2026-05-05 23:38 | 25.64423 | -80.43638 | 14 ft | 14 kts | 265° |
| 2026-05-05 23:38 | 25.64417 | -80.43739 | 14 ft | 12 kts | 267° |
| 2026-05-05 23:39 | 25.64413 | -80.43836 | 14 ft | 15 kts | 267° |
| 2026-05-05 23:39 | 25.64410 | -80.43939 | 17 ft | 13 kts | 266° |
| 2026-05-05 23:39 | 25.64405 | -80.44033 | 20 ft | 11 kts | 266° |
| 2026-05-05 23:39 | 25.64377 | -80.44088 | 21 ft | 8 kts | 191° |
| 2026-05-05 23:40 | 25.64322 | -80.44082 | 20 ft | 8 kts | 173° |
| 2026-05-05 23:40 | 25.64293 | -80.44038 | 19 ft | 8 kts | 88° |
| 2026-05-05 23:40 | 25.64305 | -80.43782 | 15 ft | 56 kts | 87° |
| 2026-05-05 23:40 | 25.64313 | -80.43286 | 113 ft | 72 kts | 91° |
| 2026-05-05 23:41 | 25.64304 | -80.42690 | 253 ft | 83 kts | 92° |
| 2026-05-05 23:41 | 25.64302 | -80.42021 | 399 ft | 93 kts | 91° |
| 2026-05-05 23:41 | 25.64291 | -80.41289 | 535 ft | 94 kts | 91° |
| 2026-05-05 23:41 | 25.64259 | -80.40582 | 594 ft | 92 kts | 91° |
| 2026-05-05 23:42 | 25.64273 | -80.39854 | 704 ft | 95 kts | 86° |
| 2026-05-05 23:42 | 25.64328 | -80.39094 | 768 ft | 102 kts | 84° |
| 2026-05-05 23:42 | 25.64347 | -80.38300 | 859 ft | 104 kts | 88° |
| 2026-05-05 23:42 | 25.64372 | -80.37480 | 901 ft | 109 kts | 87° |
| 2026-05-05 23:43 | 25.64399 | -80.36653 | 890 ft | 105 kts | 88° |
| 2026-05-05 23:43 | 25.64438 | -80.35857 | 891 ft | 102 kts | 89° |
| 2026-05-05 23:43 | 25.64470 | -80.35078 | 905 ft | 103 kts | 88° |
| 2026-05-05 23:43 | 25.64477 | -80.34280 | 909 ft | 104 kts | 88° |
| 2026-05-05 23:44 | 25.64517 | -80.33478 | 888 ft | 104 kts | 75° |
| 2026-05-05 23:44 | 25.64889 | -80.32816 | 900 ft | 98 kts | 59° |
| 2026-05-05 23:44 | 25.65255 | -80.32184 | 889 ft | 96 kts | 60° |
| 2026-05-05 23:44 | 25.65607 | -80.31571 | 886 ft | 94 kts | 59° |
| 2026-05-05 23:45 | 25.65973 | -80.30981 | 896 ft | 93 kts | 58° |
| 2026-05-05 23:45 | 25.66318 | -80.30375 | 904 ft | 94 kts | 59° |
| 2026-05-05 23:45 | 25.66668 | -80.29763 | 912 ft | 96 kts | 59° |
| 2026-05-05 23:45 | 25.67067 | -80.29128 | 920 ft | 104 kts | 56° |
| 2026-05-05 23:46 | 25.67450 | -80.28466 | 910 ft | 100 kts | 57° |
| 2026-05-05 23:46 | 25.67820 | -80.27821 | 917 ft | 100 kts | 57° |
| 2026-05-05 23:46 | 25.68193 | -80.27182 | 911 ft | 99 kts | 62° |
| 2026-05-05 23:46 | 25.68473 | -80.26484 | 914 ft | 100 kts | 65° |
| 2026-05-05 23:47 | 25.68786 | -80.25790 | 906 ft | 101 kts | 63° |
| 2026-05-05 23:47 | 25.69073 | -80.25088 | 904 ft | 100 kts | 65° |
| 2026-05-05 23:47 | 25.69351 | -80.24385 | 896 ft | 100 kts | 65° |
| 2026-05-05 23:47 | 25.69652 | -80.23724 | 898 ft | 94 kts | 63° |
| 2026-05-05 23:48 | 25.69922 | -80.23072 | 910 ft | 94 kts | 65° |
| 2026-05-05 23:48 | 25.70212 | -80.22416 | 915 ft | 97 kts | 64° |
| 2026-05-05 23:48 | 25.70515 | -80.21717 | 917 ft | 102 kts | 65° |
| 2026-05-05 23:48 | 25.70838 | -80.21010 | 922 ft | 103 kts | 64° |
| 2026-05-05 23:49 | 25.71156 | -80.20295 | 911 ft | 106 kts | 66° |
| 2026-05-05 23:49 | 25.71471 | -80.19549 | 910 ft | 104 kts | 67° |
| 2026-05-05 23:49 | 25.71778 | -80.18836 | 903 ft | 103 kts | 67° |
| 2026-05-05 23:49 | 25.72059 | -80.18112 | 905 ft | 102 kts | 67° |
| 2026-05-05 23:50 | 25.72366 | -80.17403 | 906 ft | 103 kts | 67° |
| 2026-05-05 23:50 | 25.72653 | -80.16685 | 900 ft | 102 kts | 67° |
| 2026-05-05 23:50 | 25.72930 | -80.15963 | 908 ft | 102 kts | 67° |
| 2026-05-05 23:50 | 25.73226 | -80.15262 | 914 ft | 100 kts | 62° |
| 2026-05-05 23:51 | 25.73579 | -80.14592 | 904 ft | 101 kts | 61° |
| 2026-05-05 23:51 | 25.73954 | -80.13949 | 901 ft | 97 kts | 58° |
| 2026-05-05 23:51 | 25.74328 | -80.13318 | 908 ft | 99 kts | 56° |
| 2026-05-05 23:51 | 25.74881 | -80.12873 | 900 ft | 101 kts | 22° |
| 2026-05-05 23:52 | 25.75568 | -80.12733 | 905 ft | 100 kts | 14° |
| 2026-05-05 23:52 | 25.76249 | -80.12633 | 911 ft | 97 kts | 13° |
| 2026-05-05 23:52 | 25.76914 | -80.12565 | 910 ft | 94 kts | 13° |
| 2026-05-05 23:52 | 25.77569 | -80.12508 | 903 ft | 92 kts | 12° |
| 2026-05-05 23:53 | 25.78206 | -80.12456 | 902 ft | 91 kts | 11° |
| 2026-05-05 23:53 | 25.78843 | -80.12400 | 916 ft | 95 kts | 11° |
| 2026-05-05 23:53 | 25.79511 | -80.12343 | 910 ft | 98 kts | 10° |
| 2026-05-05 23:53 | 25.80182 | -80.12227 | 911 ft | 98 kts | 15° |
| 2026-05-05 23:54 | 25.80859 | -80.12143 | 960 ft | 96 kts | 10° |
| 2026-05-05 23:54 | 25.81497 | -80.12031 | 1044 ft | 89 kts | 14° |
| 2026-05-05 23:54 | 25.82100 | -80.11934 | 1139 ft | 88 kts | 14° |
| 2026-05-05 23:54 | 25.82703 | -80.11850 | 1202 ft | 88 kts | 17° |
| 2026-05-05 23:55 | 25.83311 | -80.11705 | 1206 ft | 91 kts | 17° |
| 2026-05-05 23:55 | 25.83937 | -80.11553 | 1226 ft | 95 kts | 14° |
| 2026-05-05 23:55 | 25.84599 | -80.11413 | 1214 ft | 98 kts | 15° |
| 2026-05-05 23:55 | 25.85266 | -80.11318 | 1222 ft | 97 kts | 9° |
| 2026-05-05 23:56 | 25.85948 | -80.11263 | 1222 ft | 101 kts | 5° |
| 2026-05-05 23:56 | 25.86651 | -80.11286 | 1223 ft | 104 kts | 4° |
| 2026-05-05 23:56 | 25.87250 | -80.10953 | 1226 ft | 101 kts | 68° |
| 2026-05-05 23:56 | 25.87082 | -80.10218 | 1225 ft | 113 kts | 134° |
| 2026-05-05 23:57 | 25.86301 | -80.10038 | 1176 ft | 124 kts | 183° |
| 2026-05-05 23:57 | 25.85452 | -80.10211 | 1107 ft | 129 kts | 206° |
| 2026-05-05 23:57 | 25.84933 | -80.10997 | 1043 ft | 129 kts | 250° |
| 2026-05-05 23:57 | 25.84565 | -80.11899 | 968 ft | 127 kts | 249° |
| 2026-05-05 23:58 | 25.84199 | -80.12810 | 927 ft | 130 kts | 248° |
| 2026-05-05 23:58 | 25.83843 | -80.13714 | 919 ft | 125 kts | 249° |
| 2026-05-05 23:58 | 25.83515 | -80.14593 | 907 ft | 124 kts | 247° |
| 2026-05-05 23:58 | 25.83146 | -80.15459 | 905 ft | 123 kts | 243° |
| 2026-05-05 23:59 | 25.82750 | -80.16285 | 899 ft | 122 kts | 241° |
| 2026-05-05 23:59 | 25.82236 | -80.17023 | 905 ft | 119 kts | 215° |
| 2026-05-05 23:59 | 25.81509 | -80.17435 | 902 ft | 118 kts | 195° |
| 2026-05-05 23:59 | 25.80713 | -80.17672 | 900 ft | 116 kts | 186° |
| 2026-05-06 00:00 | 25.79940 | -80.17803 | 895 ft | 110 kts | 179° |
| 2026-05-06 00:00 | 25.79167 | -80.17916 | 901 ft | 113 kts | 181° |
| 2026-05-06 00:00 | 25.78410 | -80.17883 | 898 ft | 105 kts | 141° |
| 2026-05-06 00:00 | 25.77944 | -80.17294 | 910 ft | 102 kts | 120° |
| 2026-05-06 00:01 | 25.77573 | -80.16613 | 917 ft | 104 kts | 112° |
| 2026-05-06 00:01 | 25.77242 | -80.15888 | 934 ft | 106 kts | 109° |
| 2026-05-06 00:01 | 25.76951 | -80.15138 | 931 ft | 105 kts | 107° |
| 2026-05-06 00:01 | 25.76703 | -80.14383 | 921 ft | 102 kts | 106° |
| 2026-05-06 00:02 | 25.76468 | -80.13647 | 927 ft | 101 kts | 105° |
| 2026-05-06 00:02 | 25.76209 | -80.12921 | 929 ft | 102 kts | 107° |
| 2026-05-06 00:02 | 25.75690 | -80.12373 | 924 ft | 117 kts | 164° |
| 2026-05-06 00:02 | 25.74887 | -80.12530 | 936 ft | 119 kts | 191° |
| 2026-05-06 00:03 | 25.74085 | -80.12790 | 936 ft | 121 kts | 194° |
| 2026-05-06 00:03 | 25.73264 | -80.13072 | 927 ft | 125 kts | 193° |
| 2026-05-06 00:03 | 25.72456 | -80.13352 | 923 ft | 121 kts | 206° |
| 2026-05-06 00:03 | 25.71990 | -80.14116 | 932 ft | 125 kts | 256° |
| 2026-05-06 00:04 | 25.71733 | -80.15028 | 931 ft | 122 kts | 255° |
| 2026-05-06 00:04 | 25.71478 | -80.15915 | 923 ft | 119 kts | 255° |
| 2026-05-06 00:04 | 25.71227 | -80.16800 | 920 ft | 121 kts | 253° |
| 2026-05-06 00:04 | 25.70994 | -80.17700 | 920 ft | 121 kts | 252° |
| 2026-05-06 00:05 | 25.70378 | -80.19397 | 923 ft | 118 kts | 250° |
| 2026-05-06 00:05 | 25.70058 | -80.20257 | 928 ft | 123 kts | 248° |
| 2026-05-06 00:05 | 25.69737 | -80.21156 | 926 ft | 124 kts | 249° |
| 2026-05-06 00:06 | 25.69367 | -80.22011 | 922 ft | 126 kts | 242° |
| 2026-05-06 00:06 | 25.68967 | -80.22874 | 918 ft | 126 kts | 243° |
| 2026-05-06 00:06 | 25.68576 | -80.23704 | 918 ft | 118 kts | 244° |
| 2026-05-06 00:06 | 25.68193 | -80.24500 | 981 ft | 115 kts | 243° |
| 2026-05-06 00:07 | 25.67811 | -80.25270 | 1071 ft | 112 kts | 243° |
| 2026-05-06 00:07 | 25.67455 | -80.26042 | 1165 ft | 113 kts | 244° |
| 2026-05-06 00:07 | 25.67085 | -80.26823 | 1212 ft | 119 kts | 245° |
| 2026-05-06 00:07 | 25.66704 | -80.27667 | 1230 ft | 124 kts | 244° |
| 2026-05-06 00:08 | 25.66296 | -80.28509 | 1241 ft | 125 kts | 241° |
| 2026-05-06 00:08 | 25.65897 | -80.29386 | 1221 ft | 128 kts | 243° |
| 2026-05-06 00:08 | 25.65483 | -80.30258 | 1219 ft | 127 kts | 243° |
| 2026-05-06 00:08 | 25.65076 | -80.31112 | 1222 ft | 124 kts | 243° |
| 2026-05-06 00:09 | 25.64685 | -80.31963 | 1213 ft | 123 kts | 243° |
| 2026-05-06 00:09 | 25.64293 | -80.32822 | 1213 ft | 126 kts | 241° |
| 2026-05-06 00:09 | 25.63926 | -80.33700 | 1224 ft | 125 kts | 246° |
| 2026-05-06 00:09 | 25.63540 | -80.34595 | 1220 ft | 130 kts | 247° |
| 2026-05-06 00:10 | 25.63324 | -80.35552 | 1221 ft | 127 kts | 261° |
| 2026-05-06 00:10 | 25.63221 | -80.36529 | 1221 ft | 128 kts | 262° |
| 2026-05-06 00:10 | 25.63102 | -80.37496 | 1224 ft | 126 kts | 261° |
| 2026-05-06 00:10 | 25.63028 | -80.38447 | 1209 ft | 120 kts | 267° |
| 2026-05-06 00:11 | 25.62972 | -80.39383 | 1086 ft | 124 kts | 265° |
| 2026-05-06 00:11 | 25.62922 | -80.40352 | 969 ft | 128 kts | 267° |
| 2026-05-06 00:11 | 25.62853 | -80.41302 | 919 ft | 119 kts | 265° |
| 2026-05-06 00:11 | 25.62787 | -80.42213 | 910 ft | 117 kts | 266° |
| 2026-05-06 00:12 | 25.62718 | -80.43076 | 906 ft | 109 kts | 266° |
| 2026-05-06 00:12 | 25.62678 | -80.43645 | 916 ft | 117 kts | 265° |
| 2026-05-06 00:12 | 25.62600 | -80.44604 | 919 ft | 129 kts | 266° |
| 2026-05-06 00:12 | 25.62495 | -80.45940 | 920 ft | 135 kts | 265° |
| 2026-05-06 00:13 | 25.62572 | -80.46954 | 849 ft | 135 kts | 308° |
| 2026-05-06 00:13 | 25.63310 | -80.47268 | 730 ft | 104 kts | 23° |
| 2026-05-06 00:13 | 25.63855 | -80.46824 | 573 ft | 95 kts | 54° |
| 2026-05-06 00:13 | 25.64097 | -80.46428 | 480 ft | 88 kts | 70° |
| 2026-05-06 00:14 | 25.64223 | -80.45813 | 363 ft | 77 kts | 85° |
| 2026-05-06 00:14 | 25.64241 | -80.45230 | 287 ft | 74 kts | 85° |
| 2026-05-06 00:14 | 25.64274 | -80.44650 | 181 ft | 77 kts | 89° |
| 2026-05-06 00:14 | 25.64295 | -80.44062 | 62 ft | 76 kts | 88° |
| 2026-05-06 00:15 | 25.64317 | -80.43529 | 13 ft | 58 kts | 86° |
| 2026-05-06 00:15 | 25.64331 | -80.43184 | 14 ft | 32 kts | 86° |
| 2026-05-06 00:15 | 25.64354 | -80.43018 | 15 ft | 14 kts | 46° |
| 2026-05-06 00:15 | 25.64430 | -80.42997 | 15 ft | 10 kts | 356° |
| 2026-05-06 00:16 | 25.64494 | -80.43019 | 15 ft | 10 kts | 352° |
| 2026-05-06 00:16 | 25.64544 | -80.43073 | 13 ft | 11 kts | 308° |
| 2026-05-06 00:16 | 25.64592 | -80.43144 | 13 ft | 11 kts | 312° |
| 2026-05-06 00:16 | 25.64645 | -80.43141 | 14 ft | 6 kts | 6° |
| 2026-05-06 00:17 | 25.64678 | -80.43159 | 15 ft | 5 kts | 307° |
| 2026-05-06 00:17 | 25.64692 | -80.43176 | 15 ft | 1 kts | 331° |
| 2026-05-06 00:17 | 25.64701 | -80.43172 | 15 ft | 0 kts | 42° |
| 2026-05-06 00:17 | 25.64701 | -80.43171 | 15 ft | 0 kts | 43° |